METAR Formatted Surface Weather Observation
Issued by NWS

Home | Current Version | Previous Version | Text Only | Print | Product List | Glossary On
Versions: 1 2 3 4 5 6 7 8 9 10 11 12 13 14 15 16 17 18 19 20
000
SAUS44 KLIX 261456
MTRBVE
METAR KBVE 261451Z AUTO 33006KT 8SM SCT019 SCT025 30/26 A3014 RMK
AO2 SLP206 T03000261 51005 $



USA.gov is the U.S. government's official web portal to all federal, state and local government web resources and services.